createdAt,value
2018-12-27T00:02:23.038Z,22.43
2018-12-27T00:05:41.077Z,23.57
2018-12-27T00:08:36.903Z,23.13
2018-12-27T00:11:22.273Z,23.60
2018-12-27T00:14:00.717Z,22.47
2018-12-27T00:16:32.341Z,22.00
2018-12-27T00:22:08.440Z,23.13
2018-12-27T00:28:37.026Z,22.43
2018-12-27T00:31:13.294Z,23.00
2018-12-27T00:33:44.696Z,20.80
2018-12-27T00:36:22.046Z,23.80
2018-12-27T00:39:14.054Z,22.27
2018-12-27T00:41:49.606Z,22.80
2018-12-27T00:44:20.949Z,23.57
2018-12-27T00:47:16.869Z,22.60
2018-12-27T00:50:28.449Z,21.30
2018-12-27T00:52:43.159Z,22.60
2018-12-27T00:55:39.540Z,21.70
2018-12-27T00:59:00.121Z,23.90
2018-12-27T01:29:39.047Z,23.87
2018-12-27T01:35:27.866Z,23.73
2018-12-27T01:38:08.577Z,24.60
2018-12-27T01:41:03.558Z,21.87
2018-12-27T01:43:44.419Z,23.80
2018-12-27T01:46:27.149Z,22.80
2018-12-27T01:49:08.181Z,23.37
2018-12-27T01:51:40.243Z,23.03
2018-12-27T01:54:22.745Z,22.20
2018-12-27T01:56:57.880Z,22.93
2018-12-27T01:59:31.164Z,22.00
2018-12-27T02:02:02.624Z,24.93
2018-12-27T02:04:42.199Z,23.47
2018-12-27T02:07:31.680Z,24.87
2018-12-27T02:10:54.395Z,23.70
2018-12-27T02:17:29.047Z,23.40
2018-12-27T02:20:13.595Z,22.47
2018-12-27T02:22:49.190Z,23.43
2018-12-27T02:25:46.499Z,23.80
2018-12-27T02:28:24.398Z,23.30
2018-12-27T02:31:55.626Z,22.03
2018-12-27T02:34:32.913Z,21.83
2018-12-27T02:37:44.703Z,21.47
2018-12-27T02:40:49.173Z,21.40
2018-12-27T02:43:41.519Z,21.80
2018-12-27T02:46:40.127Z,24.37
2018-12-27T02:49:48.752Z,23.07
2018-12-27T02:52:42.239Z,22.13
2018-12-27T02:55:36.102Z,21.87
2018-12-27T02:58:28.395Z,22.50
2018-12-27T03:01:27.362Z,21.97
2018-12-27T03:04:30.296Z,22.23
2018-12-27T03:07:28.954Z,22.77
2018-12-27T03:10:09.619Z,22.43
2018-12-27T03:12:49.082Z,23.00
2018-12-27T03:15:20.182Z,23.60
2018-12-27T03:18:22.843Z,22.43
2018-12-27T03:21:30.456Z,22.63
2018-12-27T03:24:34.448Z,21.70
2018-12-27T03:27:13.587Z,20.87
2018-12-27T03:29:46.595Z,21.07
2018-12-27T03:33:00.754Z,23.20
2018-12-27T03:35:41.822Z,22.07
2018-12-27T03:38:14.445Z,23.17
2018-12-27T03:40:47.635Z,20.37
2018-12-27T03:43:26.504Z,21.10
2018-12-27T03:46:15.603Z,21.83
2018-12-27T03:49:09.179Z,20.40
2018-12-27T03:51:41.480Z,21.40
2018-12-27T03:54:13.405Z,21.80
2018-12-27T03:59:35.228Z,20.30
2018-12-27T04:02:07.825Z,19.03
2018-12-27T04:04:48.597Z,20.03
2018-12-27T04:07:26.823Z,21.00
2018-12-27T04:10:02.206Z,20.33
2018-12-27T05:00:36.068Z,21.63
2018-12-27T05:03:42.837Z,21.13
2018-12-27T05:06:47.025Z,21.80
2018-12-27T05:09:25.522Z,22.70
2018-12-27T05:12:40.596Z,22.83
2018-12-27T05:15:12.918Z,21.30
2018-12-27T05:18:02.751Z,22.43
2018-12-27T05:20:45.646Z,21.87
2018-12-27T05:24:04.513Z,21.17
2018-12-27T05:30:12.736Z,20.33
2018-12-27T05:32:49.314Z,23.47
2018-12-27T05:36:12.310Z,23.57
2018-12-27T05:39:14.174Z,20.87
2018-12-27T05:46:06.397Z,21.93
2018-12-27T05:48:47.894Z,21.57
2018-12-27T05:51:47.289Z,23.37
2018-12-27T05:54:19.228Z,22.93
2018-12-27T05:57:27.608Z,22.17
2018-12-27T06:00:00.985Z,21.23
2018-12-27T06:30:27.732Z,21.23
2018-12-27T06:33:29.726Z,20.73
2018-12-27T06:36:33.539Z,21.10
2018-12-27T06:39:14.624Z,22.10
2018-12-27T06:42:40.916Z,22.67
2018-12-27T06:44:54.473Z,21.23
2018-12-27T06:47:43.383Z,20.47
2018-12-27T06:50:13.916Z,20.30
2018-12-27T06:52:52.675Z,20.93
2018-12-27T06:55:31.901Z,20.30
2018-12-27T06:58:09.822Z,21.13
2018-12-27T07:00:58.024Z,20.50
2018-12-27T07:03:37.275Z,20.67
2018-12-27T07:06:19.459Z,20.63
2018-12-27T07:09:14.547Z,20.03
2018-12-27T07:36:34.623Z,19.13
2018-12-27T07:39:07.781Z,21.67
2018-12-27T07:41:47.027Z,21.90
2018-12-27T07:44:42.398Z,20.60
2018-12-27T07:47:14.924Z,19.27
2018-12-27T07:50:01.861Z,19.27
2018-12-27T07:52:36.539Z,19.17
2018-12-27T07:55:15.049Z,21.77
2018-12-27T07:57:46.573Z,21.20
2018-12-27T08:20:22.729Z,20.60
2018-12-27T08:22:55.924Z,21.13
2018-12-27T08:25:30.170Z,21.87
2018-12-27T08:28:14.614Z,21.97
2018-12-27T08:51:02.063Z,21.93
2018-12-27T08:53:35.807Z,21.47
2018-12-27T08:56:35.805Z,21.37
2018-12-27T08:59:15.346Z,20.73
2018-12-27T09:02:07.715Z,24.63
2018-12-27T09:04:53.160Z,21.60
2018-12-27T09:07:30.187Z,22.40
2018-12-27T09:10:08.769Z,21.97
2018-12-27T09:12:42.571Z,23.47
2018-12-27T09:15:39.050Z,22.27
2018-12-27T09:18:08.731Z,22.20
2018-12-27T09:20:38.513Z,23.20
2018-12-27T09:23:08.297Z,22.53
2018-12-27T09:25:38.165Z,21.37
2018-12-27T09:28:07.942Z,20.60
2018-12-27T09:30:37.739Z,22.23
2018-12-27T09:33:07.537Z,22.40
2018-12-27T09:35:37.271Z,21.70
2018-12-27T09:38:07.037Z,20.77
2018-12-27T09:40:36.824Z,21.27
2018-12-27T09:43:06.528Z,20.93
2018-12-27T09:45:36.386Z,23.47
2018-12-27T09:48:06.153Z,21.83
2018-12-27T09:50:36.150Z,22.00
2018-12-27T09:53:05.978Z,21.60
2018-12-27T09:55:35.769Z,23.07
2018-12-27T09:58:05.517Z,22.03
2018-12-27T10:00:35.266Z,21.50
2018-12-27T10:03:05.028Z,21.60
2018-12-27T10:05:34.839Z,19.83
2018-12-27T10:08:04.613Z,21.20
2018-12-27T10:10:34.500Z,21.90
2018-12-27T10:13:04.350Z,22.83
2018-12-27T10:15:34.244Z,23.33
2018-12-27T10:18:04.009Z,21.73
2018-12-27T10:20:33.853Z,22.33
2018-12-27T10:23:03.647Z,21.43
2018-12-27T10:25:33.420Z,20.53
2018-12-27T10:28:03.243Z,21.87
2018-12-27T10:30:33.257Z,20.50
2018-12-27T10:33:03.006Z,21.63
2018-12-27T10:35:32.742Z,21.40
2018-12-27T10:38:02.691Z,22.60
2018-12-27T10:40:32.554Z,20.97
2018-12-27T10:43:02.387Z,21.13
2018-12-27T10:45:32.267Z,21.43
2018-12-27T10:48:02.056Z,21.70
2018-12-27T10:50:31.826Z,20.97
2018-12-27T10:53:01.581Z,20.90
2018-12-27T10:55:31.345Z,23.77
2018-12-27T10:58:01.094Z,22.63
2018-12-27T11:00:30.924Z,20.83
2018-12-27T11:03:01.567Z,21.50
2018-12-27T11:05:31.314Z,21.07
2018-12-27T11:08:01.168Z,21.83
2018-12-27T11:10:30.998Z,22.00
2018-12-27T11:13:00.726Z,22.27
2018-12-27T11:15:30.622Z,20.70
2018-12-27T11:18:00.406Z,23.20
2018-12-27T11:20:30.678Z,21.47
2018-12-27T11:23:00.535Z,24.43
2018-12-27T11:25:30.262Z,23.40
2018-12-27T11:28:00.009Z,21.47
2018-12-27T11:30:29.789Z,23.23
2018-12-27T11:32:59.521Z,22.70
2018-12-27T11:35:29.297Z,21.67
2018-12-27T11:37:59.142Z,22.63
2018-12-27T11:40:28.905Z,22.57
2018-12-27T11:42:58.698Z,20.40
2018-12-27T11:45:28.517Z,21.63
2018-12-27T11:47:58.374Z,22.53
2018-12-27T11:50:28.083Z,21.43
2018-12-27T11:52:57.926Z,21.07
2018-12-27T11:55:27.672Z,21.40
2018-12-27T11:57:57.454Z,20.77
2018-12-27T12:00:27.232Z,20.77
2018-12-27T12:02:57.062Z,20.37
2018-12-27T12:05:26.826Z,20.13
2018-12-27T12:07:56.701Z,20.90
2018-12-27T12:10:26.491Z,19.50
2018-12-27T12:12:56.267Z,22.40
2018-12-27T12:15:26.150Z,21.23
2018-12-27T12:17:55.971Z,20.90
2018-12-27T12:20:25.763Z,19.93
2018-12-27T12:22:55.594Z,21.57
2018-12-27T12:25:25.358Z,20.87
2018-12-27T12:27:55.207Z,21.17
2018-12-27T12:30:25.009Z,20.80
2018-12-27T12:32:54.775Z,21.53
2018-12-27T12:35:24.590Z,19.33
2018-12-27T12:37:54.676Z,21.73
2018-12-27T12:40:24.589Z,20.10
2018-12-27T12:42:54.410Z,22.87
2018-12-27T12:45:24.253Z,21.30
2018-12-27T12:47:54.036Z,21.63
2018-12-27T12:50:23.782Z,20.73
2018-12-27T12:52:53.558Z,21.87
2018-12-27T12:55:23.377Z,21.33
2018-12-27T12:57:53.129Z,22.03
2018-12-27T13:00:22.925Z,22.57
2018-12-27T13:02:52.673Z,21.90
2018-12-27T13:05:22.688Z,20.57
2018-12-27T13:07:52.425Z,21.40
2018-12-27T13:10:22.205Z,21.30
2018-12-27T13:12:52.032Z,20.37
2018-12-27T13:15:21.796Z,21.47
2018-12-27T13:17:51.557Z,21.10
2018-12-27T13:20:21.445Z,20.87
2018-12-27T13:22:51.228Z,21.33
2018-12-27T13:25:21.034Z,20.33
2018-12-27T13:27:50.920Z,19.93
2018-12-27T13:30:20.713Z,21.43
2018-12-27T13:32:50.441Z,20.27
2018-12-27T13:35:20.222Z,21.30
2018-12-27T13:37:50.014Z,20.93
2018-12-27T13:40:19.773Z,20.10
2018-12-27T13:42:49.528Z,20.33
2018-12-27T13:45:19.365Z,19.63
2018-12-27T13:47:49.173Z,19.80
2018-12-27T13:50:18.913Z,21.40
2018-12-27T13:52:48.825Z,19.67
2018-12-27T13:55:18.701Z,21.57
2018-12-27T13:57:48.516Z,21.97
2018-12-27T14:00:18.311Z,20.43
2018-12-27T14:02:48.077Z,21.30
2018-12-27T14:05:17.897Z,19.70
2018-12-27T14:07:47.652Z,19.70
2018-12-27T14:10:17.390Z,19.80
2018-12-27T14:12:47.144Z,20.87
2018-12-27T14:15:17.042Z,21.90
2018-12-27T14:17:46.826Z,22.03
2018-12-27T14:20:16.637Z,19.43
2018-12-27T14:22:46.441Z,19.30
2018-12-27T14:25:16.298Z,20.77
2018-12-27T14:27:46.033Z,21.63
2018-12-27T14:30:15.895Z,22.43
2018-12-27T14:32:45.610Z,20.83
2018-12-27T14:35:15.467Z,21.77
2018-12-27T14:37:45.297Z,21.80
2018-12-27T14:40:15.142Z,20.83
2018-12-27T14:42:45.061Z,23.87
2018-12-27T14:45:14.875Z,25.83
2018-12-27T14:47:44.655Z,24.90
2018-12-27T14:50:14.443Z,30.77
2018-12-27T14:52:44.233Z,36.23
2018-12-27T14:55:14.130Z,40.33
2018-12-27T14:57:43.889Z,34.80
2018-12-27T15:00:13.605Z,37.47
2018-12-27T15:02:43.483Z,32.37
2018-12-27T15:05:13.300Z,33.87
2018-12-27T15:07:43.114Z,25.47
2018-12-27T15:10:12.888Z,21.63
2018-12-27T15:12:42.789Z,20.90
2018-12-27T15:15:12.522Z,21.23
2018-12-27T15:17:42.417Z,21.20
2018-12-27T15:20:12.186Z,20.17
2018-12-27T15:22:42.021Z,19.90
2018-12-27T15:25:11.834Z,17.90
2018-12-27T15:27:41.728Z,16.27
2018-12-27T15:30:11.886Z,14.90
2018-12-27T15:32:41.737Z,14.63
2018-12-27T15:35:11.543Z,13.73
2018-12-27T15:37:41.392Z,13.77
2018-12-27T15:40:11.097Z,15.13
2018-12-27T15:42:40.931Z,15.13
2018-12-27T15:45:10.765Z,17.47
2018-12-27T15:47:40.580Z,16.53
2018-12-27T15:50:10.369Z,15.70
2018-12-27T15:52:40.209Z,15.27
2018-12-27T15:55:10.087Z,15.27
2018-12-27T15:57:39.981Z,16.73
2018-12-27T16:00:10.335Z,15.80
2018-12-27T16:02:40.291Z,15.60
2018-12-27T16:05:12.044Z,16.20
2018-12-27T16:07:41.541Z,15.70
2018-12-27T16:10:11.278Z,16.17
2018-12-27T16:12:41.073Z,16.53
2018-12-27T16:15:10.866Z,16.13
2018-12-27T16:17:40.718Z,15.57
2018-12-27T16:20:10.484Z,16.10
2018-12-27T16:22:40.453Z,16.30
2018-12-27T16:25:10.426Z,18.43
2018-12-27T16:27:40.327Z,17.23
2018-12-27T16:30:10.217Z,16.60
2018-12-27T16:32:40.145Z,16.83
2018-12-27T16:35:09.926Z,16.57
2018-12-27T16:37:40.362Z,17.13
2018-12-27T16:40:10.402Z,16.43
2018-12-27T16:42:40.193Z,16.87
2018-12-27T16:45:10.005Z,16.17
2018-12-27T16:47:39.839Z,14.73
2018-12-27T16:50:10.214Z,15.30
2018-12-27T16:52:40.033Z,14.80
2018-12-27T16:55:09.907Z,15.70
2018-12-27T16:57:39.846Z,16.53
2018-12-27T17:00:10.034Z,15.43
2018-12-27T17:02:39.871Z,14.87
2018-12-27T17:05:09.850Z,14.07
2018-12-27T17:07:39.772Z,15.37
2018-12-27T17:10:09.790Z,14.97
2018-12-27T17:12:39.857Z,14.37
2018-12-27T17:15:09.698Z,14.13
2018-12-27T17:17:39.457Z,14.73
2018-12-27T17:20:09.247Z,12.97
2018-12-27T17:22:39.166Z,13.57
2018-12-27T17:25:09.143Z,15.13
2018-12-27T17:27:39.155Z,14.10
2018-12-27T17:30:09.173Z,13.33
2018-12-27T17:32:39.062Z,13.43
2018-12-27T17:35:08.926Z,14.33
2018-12-27T17:37:38.762Z,12.93
2018-12-27T17:40:09.555Z,13.23
2018-12-27T17:42:39.395Z,12.57
2018-12-27T17:45:09.337Z,13.50
2018-12-27T17:47:39.219Z,12.70
2018-12-27T17:50:08.962Z,11.20
2018-12-27T17:52:38.699Z,12.67
2018-12-27T17:55:08.792Z,17.10
2018-12-27T17:57:38.777Z,16.00
2018-12-27T18:00:08.917Z,17.87
2018-12-27T18:02:38.865Z,14.03
2018-12-27T18:05:08.870Z,14.97
2018-12-27T18:07:38.702Z,13.23
2018-12-27T18:10:08.545Z,12.97
2018-12-27T18:12:38.313Z,14.60
2018-12-27T18:15:08.298Z,14.63
2018-12-27T18:17:38.077Z,15.53
2018-12-27T18:20:08.324Z,15.63
2018-12-27T18:22:38.137Z,14.40
2018-12-27T18:25:07.971Z,17.10
2018-12-27T18:27:37.844Z,14.77
2018-12-27T18:30:08.119Z,15.97
2018-12-27T18:32:37.898Z,16.77
2018-12-27T18:35:07.814Z,17.60
2018-12-27T18:37:38.063Z,16.97
2018-12-27T18:40:07.952Z,17.47
2018-12-27T18:42:37.731Z,18.23
2018-12-27T18:45:07.850Z,19.10
2018-12-27T18:47:37.614Z,23.20
2018-12-27T18:50:07.613Z,25.07
2018-12-27T18:52:37.393Z,19.37
2018-12-27T18:55:07.222Z,17.37
2018-12-27T18:57:37.093Z,16.10
2018-12-27T19:00:08.005Z,15.87
2018-12-27T19:02:41.885Z,17.07
2018-12-27T19:05:09.390Z,15.63
2018-12-27T19:07:44.915Z,15.73
2018-12-27T19:10:10.553Z,15.83
2018-12-27T19:13:07.899Z,16.93
2018-12-27T19:15:41.788Z,15.73
2018-12-27T19:18:22.338Z,14.80
2018-12-27T19:20:56.134Z,17.17
2018-12-27T19:23:26.692Z,17.50
2018-12-27T19:25:56.437Z,18.43
2018-12-27T19:28:26.229Z,17.63
2018-12-27T19:30:56.092Z,16.13
2018-12-27T19:33:25.889Z,15.30
2018-12-27T19:35:55.693Z,16.03
2018-12-27T19:38:25.522Z,15.57
2018-12-27T19:40:55.270Z,16.27
2018-12-27T19:43:25.092Z,15.27
2018-12-27T19:45:54.967Z,16.00
2018-12-27T19:48:24.709Z,16.10
2018-12-27T19:50:54.494Z,15.80
2018-12-27T19:53:24.341Z,14.23
2018-12-27T19:55:54.097Z,16.30
2018-12-27T19:58:23.880Z,16.00
2018-12-27T20:00:53.541Z,15.93
2018-12-27T20:03:23.358Z,15.57
2018-12-27T20:05:53.278Z,17.17
2018-12-27T20:08:23.229Z,17.53
2018-12-27T20:10:53.126Z,15.63
2018-12-27T20:13:23.043Z,16.60
2018-12-27T20:15:53.064Z,15.67
2018-12-27T20:18:22.818Z,14.33
2018-12-27T20:20:52.713Z,14.70
2018-12-27T20:23:22.488Z,13.43
2018-12-27T20:25:54.013Z,15.80
2018-12-27T20:28:23.877Z,16.13
2018-12-27T20:30:53.712Z,15.97
2018-12-27T20:33:23.482Z,15.67
2018-12-27T20:35:53.395Z,16.90
2018-12-27T20:38:23.306Z,15.90
2018-12-27T20:40:53.149Z,16.30
2018-12-27T20:43:22.899Z,16.47
2018-12-27T20:45:52.806Z,16.77
2018-12-27T20:48:22.593Z,16.00
2018-12-27T20:50:52.338Z,17.60
2018-12-27T20:53:22.100Z,17.77
2018-12-27T20:55:51.926Z,16.93
2018-12-27T20:58:21.668Z,17.33
2018-12-27T21:00:51.413Z,16.30
2018-12-27T21:03:21.732Z,16.97
2018-12-27T21:05:51.501Z,17.20
2018-12-27T21:08:21.257Z,15.73
2018-12-27T21:10:51.121Z,17.07
2018-12-27T21:13:21.451Z,17.87
2018-12-27T21:15:51.205Z,17.50
2018-12-27T21:18:21.157Z,17.00
2018-12-27T21:20:50.819Z,16.13
2018-12-27T21:23:20.498Z,17.17
2018-12-27T21:25:50.350Z,17.73
2018-12-27T21:28:20.109Z,19.03
2018-12-27T21:30:49.878Z,20.17
2018-12-27T21:33:19.688Z,19.93
2018-12-27T21:35:49.461Z,18.90
2018-12-27T21:38:21.571Z,18.93
2018-12-27T21:40:50.766Z,17.57
2018-12-27T21:43:20.555Z,18.87
2018-12-27T21:45:50.449Z,18.60
2018-12-27T21:48:20.297Z,20.73
2018-12-27T21:50:50.144Z,18.50
2018-12-27T21:53:19.985Z,18.40
2018-12-27T21:55:49.845Z,17.70
2018-12-27T21:58:19.634Z,18.77
2018-12-27T22:00:49.543Z,19.87
2018-12-27T22:03:19.391Z,18.30
2018-12-27T22:05:49.179Z,20.10
2018-12-27T22:08:19.018Z,18.30
2018-12-27T22:10:48.921Z,18.23
2018-12-27T22:13:18.668Z,20.43
2018-12-27T22:15:48.511Z,18.23
2018-12-27T22:18:18.330Z,19.50
2018-12-27T22:20:48.108Z,16.83
2018-12-27T22:23:17.951Z,17.17
2018-12-27T22:25:47.847Z,17.00
2018-12-27T22:28:17.660Z,17.37
2018-12-27T22:30:47.428Z,17.17
2018-12-27T22:33:17.269Z,16.60
2018-12-27T22:35:47.029Z,16.70
2018-12-27T22:38:16.937Z,16.83
2018-12-27T22:40:46.820Z,18.20
2018-12-27T22:43:16.598Z,17.83
2018-12-27T22:45:46.439Z,17.20
2018-12-27T22:48:16.237Z,16.93
2018-12-27T22:50:46.030Z,15.33
2018-12-27T22:53:15.860Z,14.73
2018-12-27T22:55:56.872Z,16.47
2018-12-27T22:58:26.698Z,17.90
2018-12-27T23:00:57.166Z,16.07
2018-12-27T23:03:27.394Z,16.00
2018-12-27T23:05:57.226Z,15.20
2018-12-27T23:08:27.026Z,16.03
2018-12-27T23:10:56.843Z,16.13
2018-12-27T23:13:26.595Z,16.47
2018-12-27T23:15:56.390Z,17.20
2018-12-27T23:18:26.193Z,16.10
2018-12-27T23:20:56.006Z,17.23
2018-12-27T23:23:25.854Z,16.17
2018-12-27T23:25:55.732Z,18.00
2018-12-27T23:28:25.607Z,18.57
2018-12-27T23:30:55.356Z,17.23
2018-12-27T23:33:25.113Z,18.07
2018-12-27T23:35:54.865Z,18.33
2018-12-27T23:38:24.723Z,18.23
2018-12-27T23:40:54.466Z,17.43
2018-12-27T23:43:24.351Z,18.37
2018-12-27T23:45:54.197Z,18.33
2018-12-27T23:48:24.063Z,19.20
2018-12-27T23:50:53.951Z,18.63
2018-12-27T23:53:23.713Z,17.67
2018-12-27T23:55:53.536Z,18.60
2018-12-27T23:58:23.327Z,18.30
